Terminal Aerodrome Forecast
Issued by NWS Paducah, KY

Home | Current Version | Previous Version | Graphics & Text | Print | Product List | Glossary On
Versions: 1 2 3 4 5 6 7 8 9 10 11 12 13 14 15 16
000
FTUS43 KPAH 251205 AAA
TAFPAH
TAF AMD
KPAH 251205Z 2512/2612 18003KT P6SM -SHRA VCTS BKN060CB BKN250
      TEMPO 2512/2513 3SM TSRA BR SCT020 BKN035CB
     FM251500 20008G15KT P6SM SCT040 BKN250
     FM260000 18006KT P6SM FEW050 SCT250=

USA.gov is the U.S. government's official web portal to all federal, state and local government web resources and services.